Vaestmarkum, Sweden

1:21 PM CEST on July 23, 2016 (GMT +0200)
Kuba, Bjästa | | Change Station

Elev 20 ft 63.18 °N, 18.55 °E | Updated 29 seconds ago

Clear
Clear
71.8 °F
Feels Like 77 °F
N
4.5
Wind Variable Wind from East
Gusts 7.4 mph

Today
High -- | Low -- °F
--% Chance of Precip.
Yesterday
High -- | Low -- °F
Precip. -- in
Pressure 30.09 in
Visibility 6.2 miles
Clouds
Heat Index 77 °F
Dew Point 52 °F
Humidity 49%
Rainfall 0.00 in
Snow Depth Not available.
3:38 AM 10:06 PM
Waning Gibbous, 86% visible
METAR ESNK 231050Z AUTO 16003KT 9999 NCD 25/13 Q1019
Pressure 30.09 in
Visibility 6.2 miles
Clouds
Heat Index 77 °F
Dew Point 52 °F
Humidity 49%
Rainfall 0.00 in
Snow Depth Not available.
3:38 AM 10:06 PM
Waning Gibbous, 86% visible
METAR ESNK 231050Z AUTO 16003KT 9999 NCD 25/13 Q1019

10-Day Weather Forecast

×

Almanac

Astronomy

Jul. 23, 2016 Rise Set
Actual Time
Civil Twilight
Nautical Twilight
Astronomical Twilight
Moon
Length of Visible Light
Length of Day
Tomorrow will be .
, % of the Moon is Illuminated

Today's Extremes

Country Highs Country Lows

Community

WunderPhotos

Upload Photos

1,926,799 photos uploaded!

WunderBlog® & News

Nearby

Air Quality

  Air Quality AQ Index Pollutant
Not available.

Snow Depth

Station Depth Elevation

Earthquake Activity

City Distance Mag. Time & Date
Minimum magnitude displayed is 2.5.

Coastal Water Temperatures

Place Temperature

Stations

Nearby Weather Stations

Station Location Temp. Windchill Dew Point Humidity Wind Precip. Elev Updated Type